sensor_id;sensor_type;location;lat;lon;timestamp;temperature;humidity
15821;DHT22;8011;51.650;7.240;2022-12-04T00:00:49;1.30;99.90
15821;DHT22;8011;51.650;7.240;2022-12-04T00:03:15;1.30;99.90
15821;DHT22;8011;51.650;7.240;2022-12-04T00:05:41;1.30;99.90
15821;DHT22;8011;51.650;7.240;2022-12-04T00:08:07;1.30;99.90
15821;DHT22;8011;51.650;7.240;2022-12-04T00:10:32;1.30;99.90
15821;DHT22;8011;51.650;7.240;2022-12-04T00:12:58;1.30;99.90
15821;DHT22;8011;51.650;7.240;2022-12-04T00:15:24;1.30;99.90
15821;DHT22;8011;51.650;7.240;2022-12-04T00:17:50;1.30;99.90
15821;DHT22;8011;51.650;7.240;2022-12-04T00:20:15;1.20;99.90
15821;DHT22;8011;51.650;7.240;2022-12-04T00:22:41;1.30;99.90
15821;DHT22;8011;51.650;7.240;2022-12-04T00:25:07;1.20;99.90
15821;DHT22;8011;51.650;7.240;2022-12-04T00:27:33;1.20;99.90
15821;DHT22;8011;51.650;7.240;2022-12-04T00:29:58;1.30;99.90
15821;DHT22;8011;51.650;7.240;2022-12-04T00:32:24;1.30;99.90
15821;DHT22;8011;51.650;7.240;2022-12-04T00:34:53;1.20;99.90
15821;DHT22;8011;51.650;7.240;2022-12-04T00:37:18;1.20;99.90
15821;DHT22;8011;51.650;7.240;2022-12-04T00:39:44;1.20;99.90
15821;DHT22;8011;51.650;7.240;2022-12-04T00:42:09;1.30;99.90
15821;DHT22;8011;51.650;7.240;2022-12-04T00:44:35;1.30;99.90
15821;DHT22;8011;51.650;7.240;2022-12-04T00:47:01;1.20;99.90
15821;DHT22;8011;51.650;7.240;2022-12-04T00:49:26;1.20;99.90
15821;DHT22;8011;51.650;7.240;2022-12-04T00:51:52;1.30;99.90
15821;DHT22;8011;51.650;7.240;2022-12-04T00:54:17;1.30;99.90
15821;DHT22;8011;51.650;7.240;2022-12-04T00:56:43;1.30;99.90
15821;DHT22;8011;51.650;7.240;2022-12-04T00:59:09;1.30;99.90
15821;DHT22;8011;51.650;7.240;2022-12-04T04:00:20;1.40;99.90
15821;DHT22;8011;51.650;7.240;2022-12-04T04:02:57;1.40;99.90
15821;DHT22;8011;51.650;7.240;2022-12-04T04:05:26;1.40;99.90
15821;DHT22;8011;51.650;7.240;2022-12-04T04:07:59;1.50;99.90
15821;DHT22;8011;51.650;7.240;2022-12-04T04:10:47;1.50;99.90
15821;DHT22;8011;51.650;7.240;2022-12-04T04:13:17;1.50;99.90
15821;DHT22;8011;51.650;7.240;2022-12-04T04:16:05;1.50;99.90
15821;DHT22;8011;51.650;7.240;2022-12-04T04:18:52;1.50;99.90
15821;DHT22;8011;51.650;7.240;2022-12-04T04:21:38;1.50;99.90
15821;DHT22;8011;51.650;7.240;2022-12-04T04:24:46;1.50;99.90
15821;DHT22;8011;51.650;7.240;2022-12-04T04:27:14;1.50;99.90
15821;DHT22;8011;51.650;7.240;2022-12-04T04:29:41;1.50;99.90
15821;DHT22;8011;51.650;7.240;2022-12-04T04:35:05;1.40;99.90
15821;DHT22;8011;51.650;7.240;2022-12-04T04:37:37;1.50;99.90
15821;DHT22;8011;51.650;7.240;2022-12-04T04:42:43;1.50;99.90
15821;DHT22;8011;51.650;7.240;2022-12-04T04:47:46;1.50;99.90
15821;DHT22;8011;51.650;7.240;2022-12-04T04:50:13;1.50;99.90
15821;DHT22;8011;51.650;7.240;2022-12-04T04:52:45;1.40;99.90
15821;DHT22;8011;51.650;7.240;2022-12-04T04:55:12;1.50;99.90
15821;DHT22;8011;51.650;7.240;2022-12-04T04:57:38;1.40;99.90
15821;DHT22;8011;51.650;7.240;2022-12-04T05:00:07;1.40;99.90
15821;DHT22;8011;51.650;7.240;2022-12-04T05:02:34;1.40;99.90
15821;DHT22;8011;51.650;7.240;2022-12-04T05:05:00;1.50;99.90
15821;DHT22;8011;51.650;7.240;2022-12-04T05:07:26;1.50;99.90
15821;DHT22;8011;51.650;7.240;2022-12-04T05:09:52;1.50;99.90
15821;DHT22;8011;51.650;7.240;2022-12-04T05:12:18;1.40;99.90
15821;DHT22;8011;51.650;7.240;2022-12-04T05:14:46;1.40;99.90
15821;DHT22;8011;51.650;7.240;2022-12-04T05:17:12;1.50;99.90
15821;DHT22;8011;51.650;7.240;2022-12-04T05:19:38;1.50;99.90
15821;DHT22;8011;51.650;7.240;2022-12-04T05:22:30;1.50;99.90
15821;DHT22;8011;51.650;7.240;2022-12-04T05:24:56;1.50;99.90
15821;DHT22;8011;51.650;7.240;2022-12-04T05:27:23;1.60;99.90
15821;DHT22;8011;51.650;7.240;2022-12-04T05:29:51;1.50;99.90
15821;DHT22;8011;51.650;7.240;2022-12-04T05:32:18;1.50;99.90
15821;DHT22;8011;51.650;7.240;2022-12-04T05:34:49;1.50;99.90
15821;DHT22;8011;51.650;7.240;2022-12-04T05:37:15;1.40;99.90
15821;DHT22;8011;51.650;7.240;2022-12-04T05:39:41;1.50;99.90
15821;DHT22;8011;51.650;7.240;2022-12-04T05:42:06;1.50;99.90
15821;DHT22;8011;51.650;7.240;2022-12-04T05:44:32;1.50;99.90
15821;DHT22;8011;51.650;7.240;2022-12-04T05:46:58;1.40;99.90
15821;DHT22;8011;51.650;7.240;2022-12-04T05:49:23;1.40;99.90
15821;DHT22;8011;51.650;7.240;2022-12-04T05:51:52;1.40;99.90
15821;DHT22;8011;51.650;7.240;2022-12-04T05:54:18;1.40;99.90
15821;DHT22;8011;51.650;7.240;2022-12-04T05:56:44;1.40;99.90
15821;DHT22;8011;51.650;7.240;2022-12-04T05:59:10;1.40;99.90
15821;DHT22;8011;51.650;7.240;2022-12-04T06:01:36;1.40;99.90
15821;DHT22;8011;51.650;7.240;2022-12-04T06:04:01;1.40;99.90
15821;DHT22;8011;51.650;7.240;2022-12-04T06:06:27;1.40;99.90
15821;DHT22;8011;51.650;7.240;2022-12-04T06:08:55;1.40;99.90
15821;DHT22;8011;51.650;7.240;2022-12-04T06:11:24;1.50;99.90
15821;DHT22;8011;51.650;7.240;2022-12-04T06:13:50;1.40;99.90
15821;DHT22;8011;51.650;7.240;2022-12-04T06:16:20;1.50;99.90
15821;DHT22;8011;51.650;7.240;2022-12-04T06:18:51;1.50;99.90
15821;DHT22;8011;51.650;7.240;2022-12-04T06:21:17;1.40;99.90
15821;DHT22;8011;51.650;7.240;2022-12-04T06:23:44;1.40;99.90
15821;DHT22;8011;51.650;7.240;2022-12-04T06:26:09;1.40;99.90
15821;DHT22;8011;51.650;7.240;2022-12-04T06:28:35;1.40;99.90
15821;DHT22;8011;51.650;7.240;2022-12-04T06:31:07;1.40;99.90
15821;DHT22;8011;51.650;7.240;2022-12-04T06:33:33;1.50;99.90
15821;DHT22;8011;51.650;7.240;2022-12-04T06:36:19;1.40;99.90
15821;DHT22;8011;51.650;7.240;2022-12-04T06:38:49;1.40;99.90
15821;DHT22;8011;51.650;7.240;2022-12-04T06:41:18;1.40;99.90
15821;DHT22;8011;51.650;7.240;2022-12-04T06:43:44;1.40;99.90
15821;DHT22;8011;51.650;7.240;2022-12-04T06:46:16;1.40;99.90
15821;DHT22;8011;51.650;7.240;2022-12-04T06:48:43;1.40;99.90
15821;DHT22;8011;51.650;7.240;2022-12-04T06:51:11;1.30;99.90
15821;DHT22;8011;51.650;7.240;2022-12-04T06:53:38;1.40;99.90
15821;DHT22;8011;51.650;7.240;2022-12-04T06:56:07;1.40;99.90
15821;DHT22;8011;51.650;7.240;2022-12-04T06:58:33;1.40;99.90
15821;DHT22;8011;51.650;7.240;2022-12-04T07:01:04;1.50;99.90
15821;DHT22;8011;51.650;7.240;2022-12-04T07:03:29;1.40;99.90
15821;DHT22;8011;51.650;7.240;2022-12-04T07:05:55;1.40;99.90
15821;DHT22;8011;51.650;7.240;2022-12-04T07:08:21;1.40;99.90
15821;DHT22;8011;51.650;7.240;2022-12-04T07:10:47;1.50;99.90
15821;DHT22;8011;51.650;7.240;2022-12-04T07:13:12;1.50;99.90
15821;DHT22;8011;51.650;7.240;2022-12-04T07:15:38;1.50;99.90
15821;DHT22;8011;51.650;7.240;2022-12-04T07:18:04;1.50;99.90
15821;DHT22;8011;51.650;7.240;2022-12-04T07:20:30;1.60;99.90
15821;DHT22;8011;51.650;7.240;2022-12-04T07:22:56;1.60;99.90
15821;DHT22;8011;51.650;7.240;2022-12-04T07:25:21;1.60;99.90
15821;DHT22;8011;51.650;7.240;2022-12-04T07:27:47;1.60;99.90
15821;DHT22;8011;51.650;7.240;2022-12-04T07:30:13;1.60;99.90
15821;DHT22;8011;51.650;7.240;2022-12-04T07:32:39;1.60;99.90
15821;DHT22;8011;51.650;7.240;2022-12-04T07:35:05;1.60;99.90
15821;DHT22;8011;51.650;7.240;2022-12-04T07:37:34;1.60;99.90
15821;DHT22;8011;51.650;7.240;2022-12-04T07:39:59;1.60;99.90
15821;DHT22;8011;51.650;7.240;2022-12-04T07:42:26;1.60;99.90
15821;DHT22;8011;51.650;7.240;2022-12-04T07:44:52;1.60;99.90
15821;DHT22;8011;51.650;7.240;2022-12-04T07:47:18;1.60;99.90
15821;DHT22;8011;51.650;7.240;2022-12-04T07:49:43;1.70;99.90
15821;DHT22;8011;51.650;7.240;2022-12-04T07:52:09;1.60;99.90
15821;DHT22;8011;51.650;7.240;2022-12-04T07:54:35;1.60;99.90
15821;DHT22;8011;51.650;7.240;2022-12-04T07:57:01;1.60;99.90
15821;DHT22;8011;51.650;7.240;2022-12-04T07:59:27;1.60;99.90
15821;DHT22;8011;51.650;7.240;2022-12-04T08:01:52;1.60;99.90
15821;DHT22;8011;51.650;7.240;2022-12-04T08:04:18;1.60;99.90
15821;DHT22;8011;51.650;7.240;2022-12-04T08:06:44;1.60;99.90
15821;DHT22;8011;51.650;7.240;2022-12-04T08:09:10;1.70;99.90
15821;DHT22;8011;51.650;7.240;2022-12-04T08:11:35;1.70;99.90
15821;DHT22;8011;51.650;7.240;2022-12-04T08:14:03;1.60;99.90
15821;DHT22;8011;51.650;7.240;2022-12-04T08:16:30;1.70;99.90
15821;DHT22;8011;51.650;7.240;2022-12-04T08:18:57;1.60;99.90
15821;DHT22;8011;51.650;7.240;2022-12-04T08:21:25;1.60;99.90
15821;DHT22;8011;51.650;7.240;2022-12-04T08:23:53;1.70;99.90
15821;DHT22;8011;51.650;7.240;2022-12-04T08:26:21;1.70;99.90
15821;DHT22;8011;51.650;7.240;2022-12-04T08:28:47;1.70;99.90
15821;DHT22;8011;51.650;7.240;2022-12-04T08:31:19;1.70;99.90
15821;DHT22;8011;51.650;7.240;2022-12-04T08:33:46;1.70;99.90
15821;DHT22;8011;51.650;7.240;2022-12-04T08:36:14;1.70;99.90
15821;DHT22;8011;51.650;7.240;2022-12-04T08:38:41;1.70;99.90
15821;DHT22;8011;51.650;7.240;2022-12-04T08:41:10;1.70;99.90
15821;DHT22;8011;51.650;7.240;2022-12-04T08:43:36;1.70;99.90
15821;DHT22;8011;51.650;7.240;2022-12-04T08:46:05;1.70;99.90
15821;DHT22;8011;51.650;7.240;2022-12-04T08:48:32;1.70;99.90
15821;DHT22;8011;51.650;7.240;2022-12-04T08:50:58;1.80;99.90
15821;DHT22;8011;51.650;7.240;2022-12-04T08:53:24;1.80;99.90
15821;DHT22;8011;51.650;7.240;2022-12-04T08:55:51;1.90;99.90
15821;DHT22;8011;51.650;7.240;2022-12-04T08:58:17;1.80;99.90
15821;DHT22;8011;51.650;7.240;2022-12-04T09:00:44;1.90;99.90
15821;DHT22;8011;51.650;7.240;2022-12-04T09:03:16;1.80;99.90
15821;DHT22;8011;51.650;7.240;2022-12-04T09:05:42;1.90;99.90
15821;DHT22;8011;51.650;7.240;2022-12-04T09:08:11;1.90;99.90
15821;DHT22;8011;51.650;7.240;2022-12-04T09:10:37;2.00;99.90
15821;DHT22;8011;51.650;7.240;2022-12-04T09:13:03;1.90;99.90
15821;DHT22;8011;51.650;7.240;2022-12-04T09:15:29;2.00;99.90
15821;DHT22;8011;51.650;7.240;2022-12-04T09:17:55;2.00;99.90
15821;DHT22;8011;51.650;7.240;2022-12-04T09:20:21;2.00;99.90
15821;DHT22;8011;51.650;7.240;2022-12-04T09:22:46;2.00;99.90
15821;DHT22;8011;51.650;7.240;2022-12-04T09:25:12;2.00;99.90
15821;DHT22;8011;51.650;7.240;2022-12-04T09:27:38;2.00;99.90
15821;DHT22;8011;51.650;7.240;2022-12-04T09:30:07;2.10;99.90
15821;DHT22;8011;51.650;7.240;2022-12-04T09:32:33;2.00;99.90
15821;DHT22;8011;51.650;7.240;2022-12-04T09:34:58;2.00;99.90
15821;DHT22;8011;51.650;7.240;2022-12-04T09:37:24;2.10;99.90
15821;DHT22;8011;51.650;7.240;2022-12-04T09:39:50;2.10;99.90
15821;DHT22;8011;51.650;7.240;2022-12-04T09:42:42;2.20;99.90
15821;DHT22;8011;51.650;7.240;2022-12-04T09:48:10;2.10;99.90
15821;DHT22;8011;51.650;7.240;2022-12-04T09:50:43;2.10;99.90
15821;DHT22;8011;51.650;7.240;2022-12-04T09:56:03;2.20;99.90
15821;DHT22;8011;51.650;7.240;2022-12-04T10:01:48;2.20;99.90
15821;DHT22;8011;51.650;7.240;2022-12-04T10:04:15;2.20;99.90
15821;DHT22;8011;51.650;7.240;2022-12-04T10:07:00;2.20;99.90
15821;DHT22;8011;51.650;7.240;2022-12-04T10:09:35;2.20;99.90
15821;DHT22;8011;51.650;7.240;2022-12-04T10:17:46;2.30;99.90
15821;DHT22;8011;51.650;7.240;2022-12-04T10:25:49;2.30;99.90
15821;DHT22;8011;51.650;7.240;2022-12-04T10:30:57;2.30;99.90
15821;DHT22;8011;51.650;7.240;2022-12-04T10:33:44;2.30;99.90
15821;DHT22;8011;51.650;7.240;2022-12-04T10:36:17;2.40;99.90
15821;DHT22;8011;51.650;7.240;2022-12-04T10:39:20;2.40;99.90
15821;DHT22;8011;51.650;7.240;2022-12-04T10:44:23;2.50;99.90
15821;DHT22;8011;51.650;7.240;2022-12-04T10:46:50;2.50;99.90
15821;DHT22;8011;51.650;7.240;2022-12-04T10:49:29;2.50;99.90
15821;DHT22;8011;51.650;7.240;2022-12-04T10:51:55;2.40;99.90
15821;DHT22;8011;51.650;7.240;2022-12-04T10:54:26;2.40;99.90
15821;DHT22;8011;51.650;7.240;2022-12-04T10:56:56;2.40;99.90
15821;DHT22;8011;51.650;7.240;2022-12-04T10:59:23;2.40;99.90
15821;DHT22;8011;51.650;7.240;2022-12-04T11:01:51;2.50;99.90
15821;DHT22;8011;51.650;7.240;2022-12-04T11:04:25;2.60;99.90
15821;DHT22;8011;51.650;7.240;2022-12-04T11:07:03;2.50;99.90
15821;DHT22;8011;51.650;7.240;2022-12-04T11:09:31;2.60;99.90
15821;DHT22;8011;51.650;7.240;2022-12-04T11:12:20;2.60;99.90
15821;DHT22;8011;51.650;7.240;2022-12-04T11:14:47;2.60;99.90
15821;DHT22;8011;51.650;7.240;2022-12-04T11:17:23;2.60;99.90
15821;DHT22;8011;51.650;7.240;2022-12-04T11:20:02;2.70;99.90
15821;DHT22;8011;51.650;7.240;2022-12-04T11:22:28;2.60;99.90
15821;DHT22;8011;51.650;7.240;2022-12-04T11:24:57;2.60;99.90
15821;DHT22;8011;51.650;7.240;2022-12-04T11:27:32;2.60;99.90
15821;DHT22;8011;51.650;7.240;2022-12-04T11:30:13;2.60;99.90
15821;DHT22;8011;51.650;7.240;2022-12-04T11:32:40;2.60;99.90
15821;DHT22;8011;51.650;7.240;2022-12-04T11:35:19;2.60;99.90
15821;DHT22;8011;51.650;7.240;2022-12-04T11:38:12;2.70;99.90
15821;DHT22;8011;51.650;7.240;2022-12-04T11:40:44;2.70;99.90
15821;DHT22;8011;51.650;7.240;2022-12-04T11:43:12;2.70;99.90
15821;DHT22;8011;51.650;7.240;2022-12-04T11:45:41;2.70;99.90
15821;DHT22;8011;51.650;7.240;2022-12-04T11:48:15;2.70;99.90
15821;DHT22;8011;51.650;7.240;2022-12-04T11:53:46;2.70;99.90
15821;DHT22;8011;51.650;7.240;2022-12-04T11:56:33;2.70;99.90
15821;DHT22;8011;51.650;7.240;2022-12-04T12:20:55;2.80;99.90
15821;DHT22;8011;51.650;7.240;2022-12-04T12:26:50;2.80;99.90
15821;DHT22;8011;51.650;7.240;2022-12-04T12:35:45;2.80;99.90
15821;DHT22;8011;51.650;7.240;2022-12-04T12:38:24;2.80;99.90
15821;DHT22;8011;51.650;7.240;2022-12-04T12:41:18;2.80;99.90
15821;DHT22;8011;51.650;7.240;2022-12-04T12:44:06;2.80;99.90
15821;DHT22;8011;51.650;7.240;2022-12-04T12:47:07;2.80;99.90
15821;DHT22;8011;51.650;7.240;2022-12-04T12:58:08;2.90;99.90
15821;DHT22;8011;51.650;7.240;2022-12-04T13:00:55;2.90;99.90
15821;DHT22;8011;51.650;7.240;2022-12-04T13:03:36;2.90;99.90
15821;DHT22;8011;51.650;7.240;2022-12-04T13:06:11;3.00;99.90
15821;DHT22;8011;51.650;7.240;2022-12-04T13:09:44;3.00;99.90
15821;DHT22;8011;51.650;7.240;2022-12-04T13:11:53;2.90;99.90
15821;DHT22;8011;51.650;7.240;2022-12-04T13:14:21;3.00;99.90
15821;DHT22;8011;51.650;7.240;2022-12-04T13:16:49;3.00;99.90
15821;DHT22;8011;51.650;7.240;2022-12-04T13:19:27;2.90;99.90
15821;DHT22;8011;51.650;7.240;2022-12-04T13:22:12;3.00;99.90
15821;DHT22;8011;51.650;7.240;2022-12-04T13:27:33;3.00;99.90
15821;DHT22;8011;51.650;7.240;2022-12-04T13:30:35;2.90;99.90
15821;DHT22;8011;51.650;7.240;2022-12-04T13:41:17;3.00;99.90
15821;DHT22;8011;51.650;7.240;2022-12-04T13:46:27;2.90;99.90
15821;DHT22;8011;51.650;7.240;2022-12-04T13:48:54;3.00;99.90
15821;DHT22;8011;51.650;7.240;2022-12-04T13:51:35;3.00;99.90
15821;DHT22;8011;51.650;7.240;2022-12-04T13:56:53;3.00;99.90
15821;DHT22;8011;51.650;7.240;2022-12-04T14:02:00;3.00;99.90
15821;DHT22;8011;51.650;7.240;2022-12-04T14:04:45;3.00;99.90
15821;DHT22;8011;51.650;7.240;2022-12-04T14:07:36;3.10;99.90
15821;DHT22;8011;51.650;7.240;2022-12-04T14:12:48;3.10;99.90
15821;DHT22;8011;51.650;7.240;2022-12-04T14:15:23;3.10;99.90
15821;DHT22;8011;51.650;7.240;2022-12-04T14:20:39;3.00;99.90
15821;DHT22;8011;51.650;7.240;2022-12-04T14:25:42;3.00;99.90
15821;DHT22;8011;51.650;7.240;2022-12-04T14:28:20;3.00;99.90
15821;DHT22;8011;51.650;7.240;2022-12-04T14:31:02;3.00;99.90
15821;DHT22;8011;51.650;7.240;2022-12-04T14:33:30;3.00;99.90
15821;DHT22;8011;51.650;7.240;2022-12-04T14:36:07;3.00;99.90
15821;DHT22;8011;51.650;7.240;2022-12-04T14:38:34;3.00;99.90
15821;DHT22;8011;51.650;7.240;2022-12-04T14:41:00;2.90;99.90
15821;DHT22;8011;51.650;7.240;2022-12-04T14:43:36;3.00;99.90
15821;DHT22;8011;51.650;7.240;2022-12-04T14:51:28;2.90;99.90
15821;DHT22;8011;51.650;7.240;2022-12-04T14:59:21;2.90;99.90
15821;DHT22;8011;51.650;7.240;2022-12-04T15:01:49;2.90;99.90
15821;DHT22;8011;51.650;7.240;2022-12-04T15:04:30;2.80;99.90
15821;DHT22;8011;51.650;7.240;2022-12-04T15:06:57;2.90;99.90
15821;DHT22;8011;51.650;7.240;2022-12-04T15:09:24;2.90;99.90
15821;DHT22;8011;51.650;7.240;2022-12-04T15:12:19;2.90;99.90
15821;DHT22;8011;51.650;7.240;2022-12-04T15:17:39;2.90;99.90
15821;DHT22;8011;51.650;7.240;2022-12-04T15:20:14;2.90;99.90
15821;DHT22;8011;51.650;7.240;2022-12-04T15:22:40;2.90;99.90
15821;DHT22;8011;51.650;7.240;2022-12-04T15:25:38;2.90;99.90
15821;DHT22;8011;51.650;7.240;2022-12-04T15:28:10;2.90;99.90
15821;DHT22;8011;51.650;7.240;2022-12-04T15:30:37;2.90;99.90
15821;DHT22;8011;51.650;7.240;2022-12-04T15:33:05;2.90;99.90
15821;DHT22;8011;51.650;7.240;2022-12-04T15:35:33;2.80;99.90
15821;DHT22;8011;51.650;7.240;2022-12-04T15:37:59;2.80;99.90
15821;DHT22;8011;51.650;7.240;2022-12-04T15:40:27;2.80;99.90
15821;DHT22;8011;51.650;7.240;2022-12-04T15:42:53;2.80;99.90
15821;DHT22;8011;51.650;7.240;2022-12-04T15:45:32;2.80;99.90
15821;DHT22;8011;51.650;7.240;2022-12-04T15:47:59;2.80;99.90
15821;DHT22;8011;51.650;7.240;2022-12-04T15:50:27;2.80;99.90
15821;DHT22;8011;51.650;7.240;2022-12-04T15:53:06;2.80;99.90
15821;DHT22;8011;51.650;7.240;2022-12-04T15:55:52;2.80;99.90
15821;DHT22;8011;51.650;7.240;2022-12-04T15:58:29;2.90;99.90
15821;DHT22;8011;51.650;7.240;2022-12-04T16:01:04;2.80;99.90
15821;DHT22;8011;51.650;7.240;2022-12-04T16:06:23;2.80;99.90
15821;DHT22;8011;51.650;7.240;2022-12-04T16:08:57;2.80;99.90
15821;DHT22;8011;51.650;7.240;2022-12-04T16:11:35;2.80;99.90
15821;DHT22;8011;51.650;7.240;2022-12-04T16:14:11;2.90;99.90
15821;DHT22;8011;51.650;7.240;2022-12-04T16:16:40;2.80;99.90
15821;DHT22;8011;51.650;7.240;2022-12-04T16:19:14;2.90;99.90
15821;DHT22;8011;51.650;7.240;2022-12-04T16:21:40;2.80;99.90
15821;DHT22;8011;51.650;7.240;2022-12-04T16:24:06;2.90;99.90
15821;DHT22;8011;51.650;7.240;2022-12-04T16:26:34;2.80;99.90
15821;DHT22;8011;51.650;7.240;2022-12-04T16:29:00;2.80;99.90
15821;DHT22;8011;51.650;7.240;2022-12-04T16:31:26;2.80;99.90
15821;DHT22;8011;51.650;7.240;2022-12-04T16:33:51;2.80;99.90
15821;DHT22;8011;51.650;7.240;2022-12-04T16:36:17;2.80;99.90
15821;DHT22;8011;51.650;7.240;2022-12-04T16:38:43;2.90;99.90
15821;DHT22;8011;51.650;7.240;2022-12-04T16:41:16;2.90;99.90
15821;DHT22;8011;51.650;7.240;2022-12-04T16:43:42;2.90;99.90
15821;DHT22;8011;51.650;7.240;2022-12-04T16:46:13;2.90;99.90
15821;DHT22;8011;51.650;7.240;2022-12-04T16:48:40;2.80;99.90
15821;DHT22;8011;51.650;7.240;2022-12-04T16:51:12;2.80;99.90
15821;DHT22;8011;51.650;7.240;2022-12-04T16:53:40;2.80;99.90
15821;DHT22;8011;51.650;7.240;2022-12-04T16:56:06;2.80;99.90
15821;DHT22;8011;51.650;7.240;2022-12-04T16:58:32;2.80;99.90
15821;DHT22;8011;51.650;7.240;2022-12-04T17:00:58;2.70;99.90
15821;DHT22;8011;51.650;7.240;2022-12-04T17:03:30;2.80;99.90
15821;DHT22;8011;51.650;7.240;2022-12-04T17:05:57;2.80;99.90
15821;DHT22;8011;51.650;7.240;2022-12-04T17:08:23;2.70;99.90
15821;DHT22;8011;51.650;7.240;2022-12-04T17:10:49;2.70;99.90
15821;DHT22;8011;51.650;7.240;2022-12-04T17:13:19;2.70;99.90
15821;DHT22;8011;51.650;7.240;2022-12-04T17:15:45;2.70;99.90
15821;DHT22;8011;51.650;7.240;2022-12-04T17:18:11;2.70;99.90
15821;DHT22;8011;51.650;7.240;2022-12-04T17:20:39;2.60;99.90
15821;DHT22;8011;51.650;7.240;2022-12-04T17:23:05;2.60;99.90
15821;DHT22;8011;51.650;7.240;2022-12-04T17:25:31;2.60;99.90
15821;DHT22;8011;51.650;7.240;2022-12-04T17:27:56;2.70;99.90
15821;DHT22;8011;51.650;7.240;2022-12-04T17:30:22;2.70;99.90
15821;DHT22;8011;51.650;7.240;2022-12-04T17:32:48;2.70;99.90
15821;DHT22;8011;51.650;7.240;2022-12-04T17:35:14;2.70;99.90
15821;DHT22;8011;51.650;7.240;2022-12-04T17:37:40;2.70;99.90
15821;DHT22;8011;51.650;7.240;2022-12-04T17:40:06;2.60;99.90
15821;DHT22;8011;51.650;7.240;2022-12-04T17:42:33;2.60;99.90
15821;DHT22;8011;51.650;7.240;2022-12-04T17:44:59;2.60;99.90
15821;DHT22;8011;51.650;7.240;2022-12-04T17:47:25;2.60;99.90
15821;DHT22;8011;51.650;7.240;2022-12-04T17:49:50;2.60;99.90
15821;DHT22;8011;51.650;7.240;2022-12-04T17:52:16;2.60;99.90
15821;DHT22;8011;51.650;7.240;2022-12-04T17:54:44;2.70;99.90
15821;DHT22;8011;51.650;7.240;2022-12-04T17:57:09;2.60;99.90
15821;DHT22;8011;51.650;7.240;2022-12-04T17:59:35;2.60;99.90
15821;DHT22;8011;51.650;7.240;2022-12-04T18:02:01;2.60;99.90
15821;DHT22;8011;51.650;7.240;2022-12-04T18:04:27;2.60;99.90
15821;DHT22;8011;51.650;7.240;2022-12-04T18:06:52;2.60;99.90
15821;DHT22;8011;51.650;7.240;2022-12-04T18:09:19;2.60;99.90
15821;DHT22;8011;51.650;7.240;2022-12-04T18:11:46;2.70;99.90
15821;DHT22;8011;51.650;7.240;2022-12-04T18:14:14;2.60;99.90
15821;DHT22;8011;51.650;7.240;2022-12-04T18:16:43;2.60;99.90
15821;DHT22;8011;51.650;7.240;2022-12-04T18:19:10;2.60;99.90
15821;DHT22;8011;51.650;7.240;2022-12-04T18:21:36;2.70;99.90
15821;DHT22;8011;51.650;7.240;2022-12-04T18:24:03;2.70;99.90
15821;DHT22;8011;51.650;7.240;2022-12-04T18:26:36;2.60;99.90
15821;DHT22;8011;51.650;7.240;2022-12-04T18:29:03;2.60;99.90
15821;DHT22;8011;51.650;7.240;2022-12-04T18:31:29;2.60;99.90
15821;DHT22;8011;51.650;7.240;2022-12-04T18:33:55;2.70;99.90
15821;DHT22;8011;51.650;7.240;2022-12-04T18:36:23;2.60;99.90
15821;DHT22;8011;51.650;7.240;2022-12-04T18:38:54;2.50;99.90
15821;DHT22;8011;51.650;7.240;2022-12-04T18:41:20;2.50;99.90
15821;DHT22;8011;51.650;7.240;2022-12-04T18:43:45;2.50;99.90
15821;DHT22;8011;51.650;7.240;2022-12-04T18:46:14;2.50;99.90
15821;DHT22;8011;51.650;7.240;2022-12-04T18:48:41;2.50;99.90
15821;DHT22;8011;51.650;7.240;2022-12-04T18:51:23;2.50;99.90
15821;DHT22;8011;51.650;7.240;2022-12-04T18:53:51;2.50;99.90
15821;DHT22;8011;51.650;7.240;2022-12-04T18:56:17;2.50;99.90
15821;DHT22;8011;51.650;7.240;2022-12-04T18:58:43;2.40;99.90
15821;DHT22;8011;51.650;7.240;2022-12-04T19:01:13;2.40;99.90
15821;DHT22;8011;51.650;7.240;2022-12-04T19:03:39;2.40;99.90
15821;DHT22;8011;51.650;7.240;2022-12-04T19:06:06;2.40;99.90
15821;DHT22;8011;51.650;7.240;2022-12-04T19:08:32;2.40;99.90
15821;DHT22;8011;51.650;7.240;2022-12-04T19:11:14;2.40;99.90
15821;DHT22;8011;51.650;7.240;2022-12-04T19:13:40;2.40;99.90
15821;DHT22;8011;51.650;7.240;2022-12-04T19:16:14;2.50;99.90
15821;DHT22;8011;51.650;7.240;2022-12-04T19:18:41;2.40;99.90
15821;DHT22;8011;51.650;7.240;2022-12-04T19:21:07;2.40;99.90
15821;DHT22;8011;51.650;7.240;2022-12-04T19:23:33;2.40;99.90
15821;DHT22;8011;51.650;7.240;2022-12-04T19:26:00;2.40;99.90
15821;DHT22;8011;51.650;7.240;2022-12-04T19:28:26;2.50;99.90
15821;DHT22;8011;51.650;7.240;2022-12-04T19:30:53;2.50;99.90
15821;DHT22;8011;51.650;7.240;2022-12-04T19:33:19;2.40;99.90
15821;DHT22;8011;51.650;7.240;2022-12-04T19:36:02;2.50;99.90
15821;DHT22;8011;51.650;7.240;2022-12-04T19:38:29;2.40;99.90
15821;DHT22;8011;51.650;7.240;2022-12-04T19:41:14;2.50;99.90
15821;DHT22;8011;51.650;7.240;2022-12-04T19:43:42;2.40;99.90
15821;DHT22;8011;51.650;7.240;2022-12-04T19:46:09;2.40;99.90
15821;DHT22;8011;51.650;7.240;2022-12-04T19:48:36;2.50;99.90
15821;DHT22;8011;51.650;7.240;2022-12-04T19:51:09;2.50;99.90
15821;DHT22;8011;51.650;7.240;2022-12-04T19:53:36;2.50;99.90
15821;DHT22;8011;51.650;7.240;2022-12-04T19:56:05;2.40;99.90
15821;DHT22;8011;51.650;7.240;2022-12-04T19:58:32;2.50;99.90
15821;DHT22;8011;51.650;7.240;2022-12-04T20:01:01;2.60;99.90
15821;DHT22;8011;51.650;7.240;2022-12-04T20:03:27;2.60;99.90
15821;DHT22;8011;51.650;7.240;2022-12-04T20:05:52;2.50;99.90
15821;DHT22;8011;51.650;7.240;2022-12-04T20:08:18;2.60;99.90
15821;DHT22;8011;51.650;7.240;2022-12-04T20:10:44;2.60;99.90
15821;DHT22;8011;51.650;7.240;2022-12-04T20:13:09;2.60;99.90
15821;DHT22;8011;51.650;7.240;2022-12-04T20:15:36;2.60;99.90
15821;DHT22;8011;51.650;7.240;2022-12-04T20:18:02;2.60;99.90
15821;DHT22;8011;51.650;7.240;2022-12-04T20:20:28;2.60;99.90
15821;DHT22;8011;51.650;7.240;2022-12-04T20:22:54;2.60;99.90
15821;DHT22;8011;51.650;7.240;2022-12-04T20:25:19;2.60;99.90
15821;DHT22;8011;51.650;7.240;2022-12-04T20:27:45;2.60;99.90
15821;DHT22;8011;51.650;7.240;2022-12-04T20:30:17;2.70;99.90
15821;DHT22;8011;51.650;7.240;2022-12-04T20:32:43;2.70;99.90
15821;DHT22;8011;51.650;7.240;2022-12-04T20:35:09;2.70;99.90
15821;DHT22;8011;51.650;7.240;2022-12-04T20:37:35;2.70;99.90
15821;DHT22;8011;51.650;7.240;2022-12-04T20:40:03;2.60;99.90
15821;DHT22;8011;51.650;7.240;2022-12-04T20:42:32;2.70;99.90
15821;DHT22;8011;51.650;7.240;2022-12-04T20:44:57;2.70;99.90
15821;DHT22;8011;51.650;7.240;2022-12-04T20:47:23;2.70;99.90
15821;DHT22;8011;51.650;7.240;2022-12-04T20:49:50;2.70;99.90
15821;DHT22;8011;51.650;7.240;2022-12-04T20:52:15;2.70;99.90
15821;DHT22;8011;51.650;7.240;2022-12-04T20:54:41;2.70;99.90
15821;DHT22;8011;51.650;7.240;2022-12-04T20:57:08;2.80;99.90
15821;DHT22;8011;51.650;7.240;2022-12-04T20:59:34;2.70;99.90
15821;DHT22;8011;51.650;7.240;2022-12-04T21:01:59;2.70;99.90
15821;DHT22;8011;51.650;7.240;2022-12-04T21:04:25;2.70;99.90
15821;DHT22;8011;51.650;7.240;2022-12-04T21:06:51;2.70;99.90
15821;DHT22;8011;51.650;7.240;2022-12-04T21:09:22;2.70;99.90
15821;DHT22;8011;51.650;7.240;2022-12-04T21:11:55;2.70;99.90
15821;DHT22;8011;51.650;7.240;2022-12-04T21:14:26;2.80;99.90
15821;DHT22;8011;51.650;7.240;2022-12-04T21:17:12;2.70;99.90